Cabo San Vicente — 3ERK3 — position and weather

sailwx.info

Track history (hours):
 
Tides and Currents Weather Stations Pressure Air Temp Water Temp Dewpoint Dewpoint Depression Visibility Wind Speed Wind Dir Waves Ship Positions

Cabo San Vicente

Last reported at 2017-Sep-25 11:00 UTC. Time now 2017-Sep-25 11:29 UTC.
Position N 36°02' W 122°13'.

Length 228 m; draft 7.2 m.

Type: Tanker. MMSI: 356022000.

Date/timePositionNaut miles runAvg speedWind from/ knotsBaromVisibWave heightAir tempDewpointWater temp
2017-Sep-25 11:00N 36°02' W 122°13'611.8
2017-Sep-25 10:30N 36°08' W 122°16'711.7
2017-Sep-25 09:55N 36°14' W 122°17'511.7
2017-Sep-25 09:30N 36°19' W 122°20'611.4
2017-Sep-25 09:00N 36°24' W 122°22'611.0
2017-Sep-25 08:30N 36°30' W 122°24'611.3
2017-Sep-25 08:00N 36°35' W 122°26'611.0
2017-Sep-25 07:30N 36°40' W 122°28'510.8
2017-Sep-25 07:00N 36°45' W 122°30'611.0
2017-Sep-25 06:30N 36°51' W 122°33'611.2
2017-Sep-25 06:00N 36°56' W 122°35'611.3
2017-Sep-25 05:30N 37°01' W 122°37'611.1
2017-Sep-25 05:00N 37°07' W 122°39'612.2
2017-Sep-25 04:30N 37°13' W 122°41'612.1
2017-Sep-25 04:00N 37°18' W 122°44'612.3
2017-Sep-25 03:30N 37°24' W 122°44'612.2
2017-Sep-25 03:00N 37°30' W 122°44'612.0
2017-Sep-25 02:30N 37°36' W 122°44'611.8
2017-Sep-25 02:00N 37°42' W 122°42'5 9.8
2017-Sep-25 01:30N 37°46' W 122°38'713.9
2017-Sep-25 01:00N 37°49' W 122°30'510.8
2017-Sep-25 00:30N 37°53' W 122°25'612.1
2017-Sep-25 00:00N 37°59' W 122°26'611.7
2017-Sep-24 23:30N 38°03' W 122°21'611.0
2017-Sep-24 23:00N 38°04' W 122°14'5 9.2
2017-Sep-24 22:30N 38°02' W 122°09'  
2017-Sep-22 01:19N 37°30' W 123°15'1 3.8
2017-Sep-22 01:01N 37°29' W 123°15'9 3.0
2017-Sep-21 22:00N 37°33' W 123°24'5 0.2
2017-Sep-21 02:13N 37°30' W 123°20'0 0.8
2017-Sep-21 01:55N 37°30' W 123°20'3 1.0
2017-Sep-20 22:41N 37°30' W 123°16'1 5.6
2017-Sep-20 22:30N 37°29' W 123°14'610.1
2017-Sep-20 21:55N 37°26' W 123°08'410.1
2017-Sep-20 21:29N 37°22' W 123°06'170 9.4
2017-Sep-20 03:25N 34°46' W 121°45'4 9.4
2017-Sep-20 03:00N 34°42' W 121°43'5 9.4
2017-Sep-20 02:30N 34°39' W 121°39'5 9.6
2017-Sep-20 02:01N 34°35' W 121°35'5 9.3
2017-Sep-20 01:31N 34°32' W 121°31'5 9.2
2017-Sep-20 01:00N 34°29' W 121°27'4 8.6
2017-Sep-20 00:30N 34°25' W 121°25'4 8.7
2017-Sep-20 00:01N 34°21' W 121°24'5 9.4
2017-Sep-19 23:30N 34°17' W 121°20'5 9.5
2017-Sep-19 23:00N 34°13' W 121°17'5 9.3
2017-Sep-19 22:31N 34°09' W 121°13'5 9.1
2017-Sep-19 22:01N 34°06' W 121°10'5 9.2
2017-Sep-19 21:31N 34°02' W 121°07'5 9.3
2017-Sep-19 21:00N 33°58' W 121°04'5 9.2
2017-Sep-19 20:31N 33°55' W 121°00'5 9.1
2017-Sep-19 20:01N 33°51' W 120°57'4 9.0
2017-Sep-19 19:31N 33°47' W 120°54'5 9.3
2017-Sep-19 19:00N 33°44' W 120°51'5 9.2
2017-Sep-19 18:30N 33°40' W 120°47'5 9.3
2017-Sep-19 18:00N 33°36' W 120°44'5 9.1
2017-Sep-19 17:30N 33°32' W 120°41'4 9.0
2017-Sep-19 17:01N 33°29' W 120°38'5 9.0
2017-Sep-19 16:30N 33°25' W 120°35'5 9.1
2017-Sep-19 16:00N 33°21' W 120°31'5 9.3
2017-Sep-19 15:30N 33°18' W 120°28'5 9.0
2017-Sep-19 15:01N 33°14' W 120°25'4 8.8
2017-Sep-19 14:31N 33°10' W 120°22'4 8.8
2017-Sep-19 14:00N 33°07' W 120°19'4 8.7
2017-Sep-19 13:31N 33°03' W 120°16'6 8.8
2017-Sep-19 12:51N 32°59' W 120°11'3 9.0
2017-Sep-19 12:30N 32°56' W 120°09'6 9.3
2017-Sep-19 11:50N 32°51' W 120°05'3 9.5
2017-Sep-19 11:31N 32°49' W 120°03'27 9.5
2017-Sep-19 08:41N 32°27' W 119°44'34 9.7
2017-Sep-19 05:12N 31°60' W 119°20'4 9.7
2017-Sep-19 04:47N 31°57' W 119°18'3 9.7
2017-Sep-19 04:27N 31°54' W 119°15'4 9.6
2017-Sep-19 04:00N 31°50' W 119°12'5 9.7
2017-Sep-19 03:29N 31°47' W 119°09'5 9.9
2017-Sep-19 03:01N 31°43' W 119°05'5 9.9
2017-Sep-19 02:31N 31°40' W 119°01'5 9.9
2017-Sep-19 02:01N 31°36' W 118°57'510.0
2017-Sep-19 01:30N 31°32' W 118°53'510.0
2017-Sep-19 01:00N 31°29' W 118°49'1 0.5
2017-Sep-18 23:22N 31°30' W 118°48'0 0.9
2017-Sep-18 22:59N 31°29' W 118°49'0 0.6
2017-Sep-18 22:30N 31°29' W 118°49'1 1.1
2017-Sep-18 22:01N 31°30' W 118°49'2 1.8
2017-Sep-18 20:39N 31°31' W 118°51'0 1.4
2017-Sep-18 20:23N 31°32' W 118°51'9 0.9
2017-Sep-18 10:16N 31°38' W 118°59'0 1.0
2017-Sep-18 10:01N 31°39' W 118°59'1 0.9
2017-Sep-18 08:41N 31°40' W 118°59'0 0.9
2017-Sep-18 08:30N 31°40' W 118°60'2 1.0
2017-Sep-18 06:49N 31°41' W 119°01'0 1.1
2017-Sep-18 06:30N 31°41' W 119°01'0 1.0
2017-Sep-18 06:01N 31°42' W 119°01'0 0.9
2017-Sep-18 05:29N 31°42' W 119°02'0 0.8
2017-Sep-18 04:57N 31°42' W 119°02'2 0.7
2017-Sep-18 02:36N 31°44' W 119°03'0 1.6
2017-Sep-18 02:30N 31°44' W 119°03'7 4.3
2017-Sep-18 00:52N 31°49' W 119°09'2 5.3
2017-Sep-18 00:30N 31°49' W 119°12'3 6.5
2017-Sep-18 00:00N 31°46' W 119°13'3 5.7
2017-Sep-17 23:30N 31°43' W 119°14'1 1.0
2017-Sep-17 22:39N 31°43' W 119°13'0 1.2
2017-Sep-17 22:18N 31°43' W 119°13'3 1.1
2017-Sep-17 19:57N 31°46' W 119°13'7 1.8
2017-Sep-17 16:13N 31°52' W 119°15'1 2.1
2017-Sep-17 15:50N 31°52' W 119°14'3 9.7
2017-Sep-17 15:30N 31°49' W 119°13'610.3
2017-Sep-17 14:54N 31°43' W 119°11'0 0.2
2017-Sep-17 13:39N 31°43' W 119°11'0 0.7
2017-Sep-17 13:30N 31°43' W 119°11'16 1.9
2017-Sep-17 05:02N 31°59' W 119°05'012.4
2017-Sep-17 05:00N 31°59' W 119°05'812.0
2017-Sep-17 04:22N 32°05' W 118°59'412.0
2017-Sep-17 04:00N 32°09' W 118°56'612.2
2017-Sep-17 03:30N 32°14' W 118°52'612.3
2017-Sep-17 03:00N 32°19' W 118°48'612.4
2017-Sep-17 02:31N 32°24' W 118°44'612.1
2017-Sep-17 02:00N 32°29' W 118°40'611.2
2017-Sep-17 01:30N 32°31' W 118°34'611.5
2017-Sep-17 01:00N 32°33' W 118°27'611.4
2017-Sep-17 00:30N 32°35' W 118°21'611.4
2017-Sep-17 00:00N 32°37' W 118°15'611.3
2017-Sep-16 23:30N 32°39' W 118°09'5 9.5
2017-Sep-16 23:00N 32°43' W 118°06'611.8
2017-Sep-16 22:30N 32°49' W 118°06'611.7
2017-Sep-16 22:00N 32°55' W 118°06'611.8
2017-Sep-16 21:30N 33°01' W 118°06'611.8
2017-Sep-16 21:00N 33°07' W 118°06'611.7
2017-Sep-16 20:30N 33°13' W 118°06'611.7
2017-Sep-16 20:00N 33°19' W 118°06'611.6
2017-Sep-16 19:28N 33°24' W 118°09'711.5
2017-Sep-16 18:54N 33°31' W 118°11'511.6
2017-Sep-16 18:30N 33°35' W 118°13'611.2
2017-Sep-16 18:00N 33°40' W 118°11'3 6.8
2017-Sep-16 17:30N 33°44' W 118°12'1 0.2
2017-Sep-16 13:51N 33°43' W 118°13'0 0.0
2017-Sep-16 13:24N 33°43' W 118°13'0 0.0
2017-Sep-16 12:15N 33°44' W 118°13'0 0.1
2017-Sep-16 11:51N 33°44' W 118°13'0 0.0
2017-Sep-16 03:51N 33°44' W 118°13'0 0.0
2017-Sep-16 03:27N 33°44' W 118°13'0 0.0
2017-Sep-16 02:57N 33°44' W 118°13'0 0.0
2017-Sep-16 02:27N 33°44' W 118°13'0 0.0
2017-Sep-15 22:51N 33°44' W 118°13'0 0.0
2017-Sep-15 22:30N 33°44' W 118°13'0 0.0
2017-Sep-15 20:33N 33°44' W 118°13'0 0.1
2017-Sep-15 20:27N 33°44' W 118°13'0 0.0
2017-Sep-15 18:03N 33°44' W 118°13'0 0.1
2017-Sep-15 17:54N 33°44' W 118°13'0 0.0
2017-Sep-15 13:54N 33°43' W 118°13'0 0.1
2017-Sep-15 13:30N 33°44' W 118°13'0 0.1
2017-Sep-15 12:54N 33°44' W 118°13'  
Track history (hours):
 
Tides and Currents Weather Stations Pressure Air Temp Water Temp Dewpoint Dewpoint Depression Visibility Wind Speed Wind Dir Waves Ship Positions

Cabo San Vicente

Last reported at 2017-Sep-25 11:00 UTC. Time now 2017-Sep-25 11:29 UTC.
Position N 36°02' W 122°13'.

Length 228 m; draft 7.2 m.

Type: Tanker. MMSI: 356022000.

Date/timePositionNaut miles runAvg speedWind from/ knotsBaromVisibWave heightAir tempDewpointWater temp
2017-Sep-25 11:00N 36°02' W 122°13'611.8
2017-Sep-25 10:30N 36°08' W 122°16'711.7
2017-Sep-25 09:55N 36°14' W 122°17'511.7
2017-Sep-25 09:30N 36°19' W 122°20'611.4
2017-Sep-25 09:00N 36°24' W 122°22'611.0
2017-Sep-25 08:30N 36°30' W 122°24'611.3
2017-Sep-25 08:00N 36°35' W 122°26'611.0
2017-Sep-25 07:30N 36°40' W 122°28'510.8
2017-Sep-25 07:00N 36°45' W 122°30'611.0
2017-Sep-25 06:30N 36°51' W 122°33'611.2
2017-Sep-25 06:00N 36°56' W 122°35'611.3
2017-Sep-25 05:30N 37°01' W 122°37'611.1
2017-Sep-25 05:00N 37°07' W 122°39'612.2
2017-Sep-25 04:30N 37°13' W 122°41'612.1
2017-Sep-25 04:00N 37°18' W 122°44'612.3
2017-Sep-25 03:30N 37°24' W 122°44'612.2
2017-Sep-25 03:00N 37°30' W 122°44'612.0
2017-Sep-25 02:30N 37°36' W 122°44'611.8
2017-Sep-25 02:00N 37°42' W 122°42'5 9.8
2017-Sep-25 01:30N 37°46' W 122°38'713.9
2017-Sep-25 01:00N 37°49' W 122°30'510.8
2017-Sep-25 00:30N 37°53' W 122°25'612.1
2017-Sep-25 00:00N 37°59' W 122°26'611.7
2017-Sep-24 23:30N 38°03' W 122°21'611.0
2017-Sep-24 23:00N 38°04' W 122°14'5 9.2
2017-Sep-24 22:30N 38°02' W 122°09'  
2017-Sep-22 01:19N 37°30' W 123°15'1 3.8
2017-Sep-22 01:01N 37°29' W 123°15'9 3.0
2017-Sep-21 22:00N 37°33' W 123°24'5 0.2
2017-Sep-21 02:13N 37°30' W 123°20'0 0.8
2017-Sep-21 01:55N 37°30' W 123°20'3 1.0
2017-Sep-20 22:41N 37°30' W 123°16'1 5.6
2017-Sep-20 22:30N 37°29' W 123°14'610.1
2017-Sep-20 21:55N 37°26' W 123°08'410.1
2017-Sep-20 21:29N 37°22' W 123°06'170 9.4
2017-Sep-20 03:25N 34°46' W 121°45'4 9.4
2017-Sep-20 03:00N 34°42' W 121°43'5 9.4
2017-Sep-20 02:30N 34°39' W 121°39'5 9.6
2017-Sep-20 02:01N 34°35' W 121°35'5 9.3
2017-Sep-20 01:31N 34°32' W 121°31'5 9.2
2017-Sep-20 01:00N 34°29' W 121°27'4 8.6
2017-Sep-20 00:30N 34°25' W 121°25'4 8.7
2017-Sep-20 00:01N 34°21' W 121°24'5 9.4
2017-Sep-19 23:30N 34°17' W 121°20'5 9.5
2017-Sep-19 23:00N 34°13' W 121°17'5 9.3
2017-Sep-19 22:31N 34°09' W 121°13'5 9.1
2017-Sep-19 22:01N 34°06' W 121°10'5 9.2
2017-Sep-19 21:31N 34°02' W 121°07'5 9.3
2017-Sep-19 21:00N 33°58' W 121°04'5 9.2
2017-Sep-19 20:31N 33°55' W 121°00'5 9.1
2017-Sep-19 20:01N 33°51' W 120°57'4 9.0
2017-Sep-19 19:31N 33°47' W 120°54'5 9.3
2017-Sep-19 19:00N 33°44' W 120°51'5 9.2
2017-Sep-19 18:30N 33°40' W 120°47'5 9.3
2017-Sep-19 18:00N 33°36' W 120°44'5 9.1
2017-Sep-19 17:30N 33°32' W 120°41'4 9.0
2017-Sep-19 17:01N 33°29' W 120°38'5 9.0
2017-Sep-19 16:30N 33°25' W 120°35'5 9.1
2017-Sep-19 16:00N 33°21' W 120°31'5 9.3
2017-Sep-19 15:30N 33°18' W 120°28'5 9.0
2017-Sep-19 15:01N 33°14' W 120°25'4 8.8
2017-Sep-19 14:31N 33°10' W 120°22'4 8.8
2017-Sep-19 14:00N 33°07' W 120°19'4 8.7
2017-Sep-19 13:31N 33°03' W 120°16'6 8.8
2017-Sep-19 12:51N 32°59' W 120°11'3 9.0
2017-Sep-19 12:30N 32°56' W 120°09'6 9.3
2017-Sep-19 11:50N 32°51' W 120°05'3 9.5
2017-Sep-19 11:31N 32°49' W 120°03'27 9.5
2017-Sep-19 08:41N 32°27' W 119°44'34 9.7
2017-Sep-19 05:12N 31°60' W 119°20'4 9.7
2017-Sep-19 04:47N 31°57' W 119°18'3 9.7
2017-Sep-19 04:27N 31°54' W 119°15'4 9.6
2017-Sep-19 04:00N 31°50' W 119°12'5 9.7
2017-Sep-19 03:29N 31°47' W 119°09'5 9.9
2017-Sep-19 03:01N 31°43' W 119°05'5 9.9
2017-Sep-19 02:31N 31°40' W 119°01'5 9.9
2017-Sep-19 02:01N 31°36' W 118°57'510.0
2017-Sep-19 01:30N 31°32' W 118°53'510.0
2017-Sep-19 01:00N 31°29' W 118°49'1 0.5
2017-Sep-18 23:22N 31°30' W 118°48'0 0.9
2017-Sep-18 22:59N 31°29' W 118°49'0 0.6
2017-Sep-18 22:30N 31°29' W 118°49'1 1.1
2017-Sep-18 22:01N 31°30' W 118°49'2 1.8
2017-Sep-18 20:39N 31°31' W 118°51'0 1.4
2017-Sep-18 20:23N 31°32' W 118°51'9 0.9
2017-Sep-18 10:16N 31°38' W 118°59'0 1.0
2017-Sep-18 10:01N 31°39' W 118°59'1 0.9
2017-Sep-18 08:41N 31°40' W 118°59'0 0.9
2017-Sep-18 08:30N 31°40' W 118°60'2 1.0
2017-Sep-18 06:49N 31°41' W 119°01'0 1.1
2017-Sep-18 06:30N 31°41' W 119°01'0 1.0
2017-Sep-18 06:01N 31°42' W 119°01'0 0.9
2017-Sep-18 05:29N 31°42' W 119°02'0 0.8
2017-Sep-18 04:57N 31°42' W 119°02'2 0.7
2017-Sep-18 02:36N 31°44' W 119°03'0 1.6
2017-Sep-18 02:30N 31°44' W 119°03'7 4.3
2017-Sep-18 00:52N 31°49' W 119°09'2 5.3
2017-Sep-18 00:30N 31°49' W 119°12'3 6.5
2017-Sep-18 00:00N 31°46' W 119°13'3 5.7
2017-Sep-17 23:30N 31°43' W 119°14'1 1.0
2017-Sep-17 22:39N 31°43' W 119°13'0 1.2
2017-Sep-17 22:18N 31°43' W 119°13'3 1.1
2017-Sep-17 19:57N 31°46' W 119°13'7 1.8
2017-Sep-17 16:13N 31°52' W 119°15'1 2.1
2017-Sep-17 15:50N 31°52' W 119°14'3 9.7
2017-Sep-17 15:30N 31°49' W 119°13'610.3
2017-Sep-17 14:54N 31°43' W 119°11'0 0.2
2017-Sep-17 13:39N 31°43' W 119°11'0 0.7
2017-Sep-17 13:30N 31°43' W 119°11'16 1.9
2017-Sep-17 05:02N 31°59' W 119°05'012.4
2017-Sep-17 05:00N 31°59' W 119°05'812.0
2017-Sep-17 04:22N 32°05' W 118°59'412.0
2017-Sep-17 04:00N 32°09' W 118°56'612.2
2017-Sep-17 03:30N 32°14' W 118°52'612.3
2017-Sep-17 03:00N 32°19' W 118°48'612.4
2017-Sep-17 02:31N 32°24' W 118°44'612.1
2017-Sep-17 02:00N 32°29' W 118°40'611.2
2017-Sep-17 01:30N 32°31' W 118°34'611.5
2017-Sep-17 01:00N 32°33' W 118°27'611.4
2017-Sep-17 00:30N 32°35' W 118°21'611.4
2017-Sep-17 00:00N 32°37' W 118°15'611.3
2017-Sep-16 23:30N 32°39' W 118°09'5 9.5
2017-Sep-16 23:00N 32°43' W 118°06'611.8
2017-Sep-16 22:30N 32°49' W 118°06'611.7
2017-Sep-16 22:00N 32°55' W 118°06'611.8
2017-Sep-16 21:30N 33°01' W 118°06'611.8
2017-Sep-16 21:00N 33°07' W 118°06'611.7
2017-Sep-16 20:30N 33°13' W 118°06'611.7
2017-Sep-16 20:00N 33°19' W 118°06'611.6
2017-Sep-16 19:28N 33°24' W 118°09'711.5
2017-Sep-16 18:54N 33°31' W 118°11'511.6
2017-Sep-16 18:30N 33°35' W 118°13'611.2
2017-Sep-16 18:00N 33°40' W 118°11'3 6.8
2017-Sep-16 17:30N 33°44' W 118°12'1 0.2
2017-Sep-16 13:51N 33°43' W 118°13'0 0.0
2017-Sep-16 13:24N 33°43' W 118°13'0 0.0
2017-Sep-16 12:15N 33°44' W 118°13'0 0.1
2017-Sep-16 11:51N 33°44' W 118°13'0 0.0
2017-Sep-16 03:51N 33°44' W 118°13'0 0.0
2017-Sep-16 03:27N 33°44' W 118°13'0 0.0
2017-Sep-16 02:57N 33°44' W 118°13'0 0.0
2017-Sep-16 02:27N 33°44' W 118°13'0 0.0
2017-Sep-15 22:51N 33°44' W 118°13'0 0.0
2017-Sep-15 22:30N 33°44' W 118°13'0 0.0
2017-Sep-15 20:33N 33°44' W 118°13'0 0.1
2017-Sep-15 20:27N 33°44' W 118°13'0 0.0
2017-Sep-15 18:03N 33°44' W 118°13'0 0.1
2017-Sep-15 17:54N 33°44' W 118°13'0 0.0
2017-Sep-15 13:54N 33°43' W 118°13'0 0.1
2017-Sep-15 13:30N 33°44' W 118°13'0 0.1
2017-Sep-15 12:54N 33°44' W 118°13'  

Dump ship's entire track history